createdAt,value
2023-01-13T00:01:28.031Z,98365.91
2023-01-13T00:03:54.616Z,98353.69
2023-01-13T00:06:24.428Z,98344.47
2023-01-13T00:08:51.751Z,98355.50
2023-01-13T00:11:19.461Z,98359.22
2023-01-13T00:13:46.019Z,98353.41
2023-01-13T00:16:14.773Z,98340.34
2023-01-13T00:18:41.903Z,98351.44
2023-01-13T00:21:14.977Z,98341.66
2023-01-13T00:23:41.791Z,98347.59
2023-01-13T00:26:11.238Z,98347.00
2023-01-13T00:28:37.794Z,98334.31
2023-01-13T00:31:05.979Z,98340.91
2023-01-13T00:33:32.591Z,98343.09
2023-01-13T00:36:00.913Z,98342.78
2023-01-13T00:38:28.346Z,98352.63
2023-01-13T00:40:56.466Z,98350.50
2023-01-13T00:43:23.282Z,98343.66
2023-01-13T00:45:49.817Z,98327.44
2023-01-13T00:48:16.314Z,98329.88
2023-01-13T00:50:42.998Z,98328.69
2023-01-13T00:53:09.433Z,98332.69
2023-01-13T00:55:35.913Z,98336.16
2023-01-13T00:58:02.504Z,98315.91
2023-01-13T01:00:33.139Z,98323.44
2023-01-13T01:02:59.864Z,98329.19
2023-01-13T01:05:26.287Z,98331.34
2023-01-13T01:07:52.765Z,98321.41
2023-01-13T01:10:19.389Z,98319.69
2023-01-13T01:12:45.894Z,98328.22
2023-01-13T01:15:12.736Z,98328.72
2023-01-13T01:17:39.157Z,98333.25
2023-01-13T01:20:06.057Z,98325.34
2023-01-13T01:22:32.560Z,98318.91
2023-01-13T01:24:58.995Z,98320.81
2023-01-13T01:27:25.575Z,98328.13
2023-01-13T01:29:52.092Z,98319.91
2023-01-13T01:32:18.539Z,98331.72
2023-01-13T01:34:44.977Z,98322.97
2023-01-13T01:37:12.697Z,98317.34
2023-01-13T01:39:39.197Z,98319.16
2023-01-13T01:42:05.667Z,98305.31
2023-01-13T01:44:58.457Z,98316.16
2023-01-13T01:47:26.648Z,98308.13
2023-01-13T01:49:53.290Z,98312.00
2023-01-13T01:52:37.473Z,98313.38
2023-01-13T01:55:17.893Z,98323.09
2023-01-13T01:58:07.209Z,98326.16
2023-01-13T02:00:33.915Z,98322.44
2023-01-13T02:03:01.414Z,98315.38
2023-01-13T02:05:27.886Z,98313.66
2023-01-13T02:07:56.200Z,98317.06
2023-01-13T02:10:26.078Z,98304.06
2023-01-13T02:12:53.878Z,98306.91
2023-01-13T02:15:33.232Z,98313.13
2023-01-13T02:18:24.788Z,98304.19
2023-01-13T02:21:18.940Z,98312.63
2023-01-13T02:24:35.484Z,98303.16
2023-01-13T02:27:31.372Z,98298.09
2023-01-13T02:30:08.418Z,98300.41
2023-01-13T02:32:50.328Z,98294.25
2023-01-13T02:35:28.029Z,98303.22
2023-01-13T02:37:57.652Z,98288.72
2023-01-13T02:40:30.706Z,98290.00
2023-01-13T02:43:23.643Z,98293.84
2023-01-13T02:45:57.552Z,98293.25
2023-01-13T02:48:27.513Z,98294.34
2023-01-13T02:51:00.183Z,98297.50
2023-01-13T02:53:35.982Z,98284.31
2023-01-13T02:56:05.096Z,98279.97
2023-01-13T02:58:35.936Z,98265.22
2023-01-13T03:01:02.445Z,98260.00
2023-01-13T03:03:29.021Z,98276.50
2023-01-13T03:06:19.193Z,98260.50
2023-01-13T03:09:12.029Z,98274.97
2023-01-13T03:11:54.712Z,98260.84
2023-01-13T03:14:33.834Z,98269.19
2023-01-13T03:17:17.835Z,98273.22
2023-01-13T03:19:56.635Z,98255.84
2023-01-13T03:22:43.997Z,98251.97
2023-01-13T03:25:18.984Z,98274.16
2023-01-13T03:27:50.239Z,98259.88
2023-01-13T03:30:28.310Z,98271.13
2023-01-13T03:33:00.949Z,98253.91
2023-01-13T03:35:40.691Z,98265.09
2023-01-13T03:38:16.235Z,98268.94
2023-01-13T03:40:54.362Z,98266.63
2023-01-13T03:43:31.726Z,98262.41
2023-01-13T03:46:02.874Z,98242.34
2023-01-13T03:48:33.464Z,98241.41
2023-01-13T03:51:10.807Z,98253.78
2023-01-13T03:53:43.470Z,98227.13
2023-01-13T03:56:24.148Z,98237.41
2023-01-13T03:58:52.697Z,98218.88
2023-01-13T04:01:21.624Z,98226.53
2023-01-13T04:04:03.239Z,98235.72
2023-01-13T04:06:57.987Z,98223.63
2023-01-13T04:09:52.494Z,98222.25
2023-01-13T04:12:28.552Z,98230.94
2023-01-13T04:14:56.280Z,98225.72
2023-01-13T04:17:22.831Z,98220.00
2023-01-13T04:19:49.179Z,98224.69
2023-01-13T04:22:15.526Z,98218.88
2023-01-13T04:24:41.873Z,98247.97
2023-01-13T04:27:08.185Z,98225.88
2023-01-13T04:29:34.560Z,98224.91
2023-01-13T04:32:00.840Z,98227.84
2023-01-13T04:34:28.500Z,98222.03
2023-01-13T04:36:54.882Z,98222.34
2023-01-13T04:39:21.172Z,98213.25
2023-01-13T04:41:47.604Z,98222.97
2023-01-13T04:44:13.929Z,98242.31
2023-01-13T04:46:40.298Z,98226.66
2023-01-13T04:49:06.562Z,98215.44
2023-01-13T04:51:32.891Z,98229.16
2023-01-13T04:53:59.354Z,98233.72
2023-01-13T04:56:25.622Z,98213.75
2023-01-13T04:58:51.919Z,98215.72
2023-01-13T05:01:18.421Z,98223.84
2023-01-13T05:03:44.860Z,98217.84
2023-01-13T05:06:11.442Z,98238.31
2023-01-13T05:08:37.729Z,98257.81
2023-01-13T05:11:04.019Z,98281.50
2023-01-13T05:13:30.392Z,98293.50
2023-01-13T05:15:56.695Z,98304.00
2023-01-13T05:18:23.080Z,98307.63
2023-01-13T05:20:49.955Z,98313.91
2023-01-13T05:23:16.460Z,98314.00
2023-01-13T05:25:44.367Z,98312.53
2023-01-13T05:28:11.454Z,98318.50
2023-01-13T05:30:40.083Z,98323.56
2023-01-13T05:33:06.495Z,98321.81
2023-01-13T05:35:32.917Z,98318.38
2023-01-13T05:37:59.364Z,98326.81
2023-01-13T05:40:25.731Z,98320.97
2023-01-13T05:43:07.207Z,98334.13
2023-01-13T05:45:33.559Z,98340.91
2023-01-13T05:47:59.952Z,98336.91
2023-01-13T05:50:26.258Z,98342.63
2023-01-13T05:52:52.556Z,98342.38
2023-01-13T05:55:18.945Z,98339.66
2023-01-13T05:57:45.279Z,98325.28
2023-01-13T06:00:12.228Z,98363.16
2023-01-13T06:02:39.167Z,98374.34
2023-01-13T06:05:05.721Z,98378.69
2023-01-13T06:07:32.145Z,98393.06
2023-01-13T06:09:58.454Z,98395.16
2023-01-13T06:12:24.940Z,98395.41
2023-01-13T06:14:51.355Z,98389.94
2023-01-13T06:17:18.636Z,98404.59
2023-01-13T06:19:45.086Z,98429.59
2023-01-13T06:22:21.878Z,98415.91
2023-01-13T06:24:49.883Z,98413.13
2023-01-13T06:27:17.029Z,98397.84
2023-01-13T06:29:43.434Z,98382.94
2023-01-13T06:32:26.772Z,98388.16
2023-01-13T06:35:01.272Z,98381.00
2023-01-13T06:37:29.959Z,98386.16
2023-01-13T06:39:59.514Z,98385.19
2023-01-13T06:42:29.561Z,98396.47
2023-01-13T06:44:56.179Z,98377.38
2023-01-13T06:47:23.336Z,98387.28
2023-01-13T06:49:49.829Z,98405.81
2023-01-13T06:52:16.181Z,98402.06
2023-01-13T06:54:42.744Z,98405.34
2023-01-13T06:57:09.200Z,98394.09
2023-01-13T06:59:36.423Z,98369.81
2023-01-13T07:02:03.351Z,98322.56
2023-01-13T07:04:29.793Z,98340.16
2023-01-13T07:06:56.295Z,98360.44
2023-01-13T07:09:22.864Z,98359.25
2023-01-13T07:11:49.376Z,98376.72
2023-01-13T07:14:15.747Z,98377.66
2023-01-13T07:16:42.147Z,98396.81
2023-01-13T07:19:08.493Z,98413.72
2023-01-13T07:21:34.775Z,98409.75
2023-01-13T07:24:01.159Z,98408.84
2023-01-13T07:26:27.520Z,98410.56
2023-01-13T07:28:53.908Z,98386.03
2023-01-13T07:31:21.677Z,98363.94
2023-01-13T07:33:48.164Z,98358.69
2023-01-13T07:36:15.324Z,98359.75
2023-01-13T07:38:41.818Z,98353.00
2023-01-13T07:41:12.823Z,98351.72
2023-01-13T07:43:39.265Z,98357.91
2023-01-13T07:46:06.182Z,98358.28
2023-01-13T07:48:34.010Z,98355.16
2023-01-13T07:51:05.570Z,98350.75
2023-01-13T07:53:32.274Z,98381.22
2023-01-13T07:55:59.333Z,98376.09
2023-01-13T07:58:26.938Z,98381.13
2023-01-13T08:00:54.164Z,98394.03
2023-01-13T08:03:20.841Z,98396.97
2023-01-13T08:05:47.729Z,98399.59
2023-01-13T08:08:14.813Z,98402.00
2023-01-13T08:10:41.223Z,98397.91
2023-01-13T08:13:12.558Z,98381.94
2023-01-13T08:15:39.048Z,98380.28
2023-01-13T08:18:05.443Z,98379.94
2023-01-13T08:20:32.036Z,98385.72
2023-01-13T08:23:00.699Z,98378.81
2023-01-13T08:25:28.532Z,98389.72
2023-01-13T08:27:55.406Z,98383.88
2023-01-13T08:30:22.427Z,98384.28
2023-01-13T08:32:50.181Z,98392.75
2023-01-13T08:35:18.059Z,98403.78
2023-01-13T08:37:45.670Z,98401.03
2023-01-13T08:40:13.498Z,98393.94
2023-01-13T08:42:40.476Z,98411.31
2023-01-13T08:45:07.751Z,98403.56
2023-01-13T08:47:34.529Z,98405.03
2023-01-13T08:50:01.340Z,98394.00
2023-01-13T08:52:29.504Z,98395.44
2023-01-13T08:54:55.909Z,98405.44
2023-01-13T08:57:22.465Z,98402.06
2023-01-13T08:59:49.010Z,98414.03
2023-01-13T09:02:18.870Z,98411.03
2023-01-13T09:04:46.912Z,98409.19
2023-01-13T09:07:14.890Z,98423.84
2023-01-13T09:09:41.428Z,98419.00
2023-01-13T09:12:11.537Z,98417.72
2023-01-13T09:14:38.571Z,98421.72
2023-01-13T09:17:05.969Z,98418.09
2023-01-13T09:19:32.506Z,98429.81
2023-01-13T09:21:59.199Z,98440.34
2023-01-13T09:24:25.987Z,98430.41
2023-01-13T09:26:52.489Z,98427.13
2023-01-13T09:29:19.378Z,98423.03
2023-01-13T09:31:45.921Z,98442.72
2023-01-13T09:34:17.767Z,98426.97
2023-01-13T09:36:44.082Z,98438.06
2023-01-13T09:39:10.527Z,98444.84
2023-01-13T09:41:49.510Z,98445.84
2023-01-13T09:44:25.871Z,98439.22
2023-01-13T09:47:00.331Z,98442.59
2023-01-13T09:49:39.394Z,98448.34
2023-01-13T09:52:26.690Z,98449.59
2023-01-13T09:55:22.724Z,98460.50
2023-01-13T09:57:49.175Z,98460.53
2023-01-13T10:00:23.896Z,98457.66
2023-01-13T10:03:18.313Z,98452.28
2023-01-13T10:05:56.944Z,98442.50
2023-01-13T10:08:29.728Z,98437.13
2023-01-13T10:11:02.276Z,98445.00
2023-01-13T10:13:30.773Z,98451.47
2023-01-13T10:16:12.414Z,98433.56
2023-01-13T10:18:53.043Z,98433.44
2023-01-13T10:21:39.194Z,98439.47
2023-01-13T10:24:12.581Z,98421.94
2023-01-13T10:26:51.093Z,98426.94
2023-01-13T10:29:23.839Z,98422.16
2023-01-13T10:31:51.004Z,98437.59
2023-01-13T10:34:17.775Z,98426.81
2023-01-13T10:36:55.298Z,98431.84
2023-01-13T10:39:21.847Z,98435.53
2023-01-13T10:41:48.275Z,98435.16
2023-01-13T10:44:17.440Z,98431.41
2023-01-13T10:46:54.428Z,98426.72
2023-01-13T10:49:36.417Z,98428.81
2023-01-13T10:52:23.624Z,98426.34
2023-01-13T10:54:53.155Z,98442.78
2023-01-13T10:57:23.272Z,98428.66
2023-01-13T10:59:50.357Z,98446.19
2023-01-13T11:02:25.224Z,98445.38
2023-01-13T11:04:55.719Z,98452.75
2023-01-13T11:07:33.377Z,98460.66
2023-01-13T11:10:10.533Z,98475.81
2023-01-13T11:12:50.838Z,98484.34
2023-01-13T11:15:21.800Z,98479.94
2023-01-13T11:18:01.830Z,98479.06
2023-01-13T11:20:33.697Z,98483.16
2023-01-13T11:23:21.145Z,98465.41
2023-01-13T11:25:52.001Z,98481.81
2023-01-13T11:28:41.977Z,98477.66
2023-01-13T11:31:13.891Z,98480.59
2023-01-13T11:33:55.142Z,98468.50
2023-01-13T11:36:25.814Z,98480.78
2023-01-13T11:38:55.815Z,98482.84
2023-01-13T11:41:35.288Z,98485.66
2023-01-13T11:44:10.911Z,98475.09
2023-01-13T11:46:37.597Z,98484.34
2023-01-13T11:49:05.070Z,98462.38
2023-01-13T11:51:39.774Z,98465.19
2023-01-13T11:54:25.220Z,98468.06
2023-01-13T11:57:17.852Z,98482.38
2023-01-13T12:00:04.212Z,98462.94
2023-01-13T12:02:52.773Z,98459.59
2023-01-13T12:05:26.204Z,98471.50
2023-01-13T12:08:08.278Z,98471.97
2023-01-13T12:10:52.025Z,98472.00
2023-01-13T12:13:40.085Z,98474.19
2023-01-13T12:16:46.360Z,98462.78
2023-01-13T12:19:26.262Z,98478.78
2023-01-13T12:22:13.973Z,98478.47
2023-01-13T12:24:49.573Z,98467.81
2023-01-13T12:27:20.098Z,98475.72
2023-01-13T12:29:48.769Z,98478.56
2023-01-13T12:32:18.278Z,98481.59
2023-01-13T12:35:08.739Z,98478.00
2023-01-13T12:37:52.877Z,98460.53
2023-01-13T12:40:36.413Z,98475.72
2023-01-13T12:43:20.275Z,98469.63
2023-01-13T12:45:46.766Z,98464.38
2023-01-13T12:48:44.998Z,98459.19
2023-01-13T12:51:22.575Z,98462.69
2023-01-13T12:53:49.481Z,98465.31
2023-01-13T12:56:30.089Z,98453.13
2023-01-13T12:59:25.892Z,98453.69
2023-01-13T13:02:12.548Z,98466.28
2023-01-13T13:04:48.589Z,98478.44
2023-01-13T13:07:29.825Z,98474.28
2023-01-13T13:10:16.013Z,98461.25
2023-01-13T13:12:42.509Z,98468.66
2023-01-13T13:15:23.851Z,98471.06
2023-01-13T13:17:59.221Z,98473.31
2023-01-13T13:21:05.025Z,98475.25
2023-01-13T13:23:34.277Z,98475.13
2023-01-13T13:26:15.300Z,98477.88
2023-01-13T13:29:11.074Z,98464.25
2023-01-13T13:32:10.813Z,98464.00
2023-01-13T13:35:21.836Z,98466.41
2023-01-13T13:38:05.311Z,98458.03
2023-01-13T13:40:39.277Z,98442.34
2023-01-13T13:43:12.960Z,98467.94
2023-01-13T13:45:51.359Z,98469.81
2023-01-13T13:48:26.891Z,98465.03
2023-01-13T13:50:54.713Z,98468.19
2023-01-13T13:53:22.316Z,98478.47
2023-01-13T13:55:59.639Z,98476.44
2023-01-13T13:58:28.694Z,98456.34
2023-01-13T14:00:56.791Z,98465.03
2023-01-13T14:03:32.460Z,98473.41
2023-01-13T14:06:00.961Z,98465.31
2023-01-13T14:08:29.529Z,98470.28
2023-01-13T14:10:56.542Z,98470.38
2023-01-13T14:13:31.492Z,98449.69
2023-01-13T14:16:03.414Z,98470.53
2023-01-13T14:18:33.058Z,98480.34
2023-01-13T14:21:20.113Z,98489.38
2023-01-13T14:23:53.414Z,98486.38
2023-01-13T14:26:25.937Z,98495.81
2023-01-13T14:28:53.390Z,98484.94
2023-01-13T14:31:20.115Z,98488.75
2023-01-13T14:33:49.424Z,98494.97
2023-01-13T14:36:31.951Z,98511.22
2023-01-13T14:39:04.474Z,98514.78
2023-01-13T14:41:44.298Z,98513.63
2023-01-13T14:44:21.287Z,98518.41
2023-01-13T14:46:48.053Z,98518.94
2023-01-13T14:49:40.041Z,98522.09
2023-01-13T14:52:13.965Z,98528.47
2023-01-13T14:55:06.318Z,98525.91
2023-01-13T14:57:35.093Z,98539.78
2023-01-13T15:00:13.819Z,98562.63
2023-01-13T15:02:58.575Z,98559.94
2023-01-13T15:05:29.301Z,98566.91
2023-01-13T15:08:25.722Z,98571.91
2023-01-13T15:10:55.720Z,98587.59
2023-01-13T15:13:36.670Z,98599.31
2023-01-13T15:16:07.024Z,98613.50
2023-01-13T15:18:33.670Z,98652.28
2023-01-13T15:21:00.062Z,98638.31
2023-01-13T15:23:26.459Z,98627.09
2023-01-13T15:25:52.899Z,98618.28
2023-01-13T15:28:25.713Z,98641.19
2023-01-13T15:30:53.988Z,98638.53
2023-01-13T15:33:21.833Z,98644.16
2023-01-13T15:35:52.185Z,98643.63
2023-01-13T15:38:22.702Z,98636.59
2023-01-13T15:40:51.014Z,98632.88
2023-01-13T15:43:21.710Z,98639.16
2023-01-13T15:45:48.089Z,98639.25
2023-01-13T15:48:14.865Z,98653.13
2023-01-13T15:50:41.167Z,98654.81
2023-01-13T15:53:10.436Z,98643.69
2023-01-13T15:55:38.044Z,98649.13
2023-01-13T15:58:04.890Z,98646.25
2023-01-13T16:00:31.648Z,98649.47
2023-01-13T16:02:58.154Z,98661.47
2023-01-13T16:05:24.478Z,98652.91
2023-01-13T16:07:50.790Z,98660.41
2023-01-13T16:10:24.871Z,98666.31
2023-01-13T16:12:51.404Z,98662.72
2023-01-13T16:15:19.329Z,98674.59
2023-01-13T16:17:47.132Z,98682.53
2023-01-13T16:20:15.400Z,98689.44
2023-01-13T16:22:42.360Z,98690.19
2023-01-13T16:25:15.914Z,98696.78
2023-01-13T16:27:42.296Z,98713.13
2023-01-13T16:30:21.741Z,98726.06
2023-01-13T16:32:48.366Z,98733.09
2023-01-13T16:35:14.948Z,98737.22
2023-01-13T16:37:41.471Z,98741.53
2023-01-13T16:40:18.134Z,98729.34
2023-01-13T16:42:44.517Z,98726.53
2023-01-13T16:45:11.176Z,98744.97
2023-01-13T16:47:37.513Z,98744.72
2023-01-13T16:50:04.229Z,98734.03
2023-01-13T16:52:30.503Z,98736.28
2023-01-13T16:54:56.984Z,98746.06
2023-01-13T16:57:23.516Z,98753.78
2023-01-13T16:59:49.788Z,98754.16
2023-01-13T17:02:16.433Z,98758.06
2023-01-13T17:04:42.937Z,98749.28
2023-01-13T17:07:12.679Z,98769.94
2023-01-13T17:09:39.244Z,98765.47
2023-01-13T17:12:05.782Z,98768.53
2023-01-13T17:14:32.205Z,98757.31
2023-01-13T17:16:58.517Z,98776.09
2023-01-13T17:19:25.317Z,98786.78
2023-01-13T17:21:51.672Z,98779.22
2023-01-13T17:24:18.178Z,98787.97
2023-01-13T17:26:47.625Z,98782.47
2023-01-13T17:29:19.761Z,98779.97
2023-01-13T17:31:46.249Z,98795.66
2023-01-13T17:34:13.538Z,98801.28
2023-01-13T17:36:40.197Z,98794.63
2023-01-13T17:39:06.569Z,98803.13
2023-01-13T17:41:32.937Z,98794.53
2023-01-13T17:43:59.299Z,98806.34
2023-01-13T17:46:25.754Z,98809.50
2023-01-13T17:48:52.343Z,98815.97
2023-01-13T17:51:20.220Z,98806.72
2023-01-13T17:53:46.623Z,98815.78
2023-01-13T17:56:14.911Z,98832.16
2023-01-13T17:58:41.659Z,98820.66
2023-01-13T18:01:10.451Z,98828.69
2023-01-13T18:03:39.157Z,98823.91
2023-01-13T18:06:08.710Z,98836.44
2023-01-13T18:08:35.115Z,98825.78
2023-01-13T18:11:01.786Z,98829.72
2023-01-13T18:13:29.464Z,98830.41
2023-01-13T18:16:00.421Z,98841.91
2023-01-13T18:18:26.739Z,98836.75
2023-01-13T18:20:53.710Z,98838.22
2023-01-13T18:23:21.401Z,98850.41
2023-01-13T18:25:48.199Z,98853.22
2023-01-13T18:28:14.857Z,98864.25
2023-01-13T18:30:41.181Z,98864.75
2023-01-13T18:33:07.572Z,98871.00
2023-01-13T18:35:33.992Z,98888.50
2023-01-13T18:38:00.449Z,98879.91
2023-01-13T18:40:26.860Z,98874.81
2023-01-13T18:42:53.157Z,98871.16
2023-01-13T18:45:25.433Z,98873.91
2023-01-13T18:47:54.309Z,98877.75
2023-01-13T18:50:20.786Z,98880.81
2023-01-13T18:52:47.082Z,98875.59
2023-01-13T18:55:13.413Z,98888.03
2023-01-13T18:57:40.113Z,98881.31
2023-01-13T19:00:10.834Z,98888.13
2023-01-13T19:02:37.245Z,98893.38
2023-01-13T19:05:04.009Z,98895.16
2023-01-13T19:07:30.663Z,98890.44
2023-01-13T19:09:57.199Z,98898.22
2023-01-13T19:12:23.677Z,98897.28
2023-01-13T19:14:49.984Z,98902.88
2023-01-13T19:17:16.414Z,98901.03
2023-01-13T19:19:50.967Z,98901.03
2023-01-13T19:22:19.993Z,98910.78
2023-01-13T19:24:46.565Z,98914.66
2023-01-13T19:27:14.396Z,98907.94
2023-01-13T19:29:43.284Z,98914.91
2023-01-13T19:32:18.155Z,98924.66
2023-01-13T19:34:44.723Z,98935.63
2023-01-13T19:37:11.143Z,98939.66
2023-01-13T19:39:37.796Z,98938.19
2023-01-13T19:42:04.492Z,98952.00
2023-01-13T19:44:30.914Z,98948.19
2023-01-13T19:46:58.535Z,98957.63
2023-01-13T19:49:24.833Z,98954.50
2023-01-13T19:51:51.120Z,98966.44
2023-01-13T19:54:17.785Z,98969.03
2023-01-13T19:56:44.107Z,98970.00
2023-01-13T19:59:11.819Z,98959.69
2023-01-13T20:01:38.214Z,98968.63
2023-01-13T20:04:04.763Z,98972.16
2023-01-13T20:06:31.379Z,98974.44
2023-01-13T20:08:57.704Z,98980.56
2023-01-13T20:11:24.613Z,98990.16
2023-01-13T20:13:50.892Z,98974.63
2023-01-13T20:16:17.316Z,98978.69
2023-01-13T20:18:43.646Z,98977.66
2023-01-13T20:21:09.986Z,98985.44
2023-01-13T20:23:36.634Z,98981.56
2023-01-13T20:26:07.704Z,98989.03
2023-01-13T20:28:34.396Z,98993.19
2023-01-13T20:31:00.700Z,98987.25
2023-01-13T20:33:27.106Z,99011.16
2023-01-13T20:35:57.885Z,99019.25
2023-01-13T20:38:24.230Z,99006.28
2023-01-13T20:41:00.788Z,99009.50
2023-01-13T20:43:27.339Z,99010.38
2023-01-13T20:45:53.655Z,99024.47
2023-01-13T20:48:20.430Z,99023.75
2023-01-13T20:50:52.550Z,99022.09
2023-01-13T20:53:18.983Z,99038.00
2023-01-13T20:55:45.334Z,99035.19
2023-01-13T20:58:11.795Z,99024.66
2023-01-13T21:00:38.288Z,99026.38
2023-01-13T21:03:04.642Z,99037.25
2023-01-13T21:05:31.189Z,99035.16
2023-01-13T21:07:57.499Z,99050.19
2023-01-13T21:10:23.848Z,99048.00
2023-01-13T21:12:50.138Z,99058.56
2023-01-13T21:15:16.504Z,99062.66
2023-01-13T21:17:43.982Z,99064.63
2023-01-13T21:20:12.179Z,99069.59
2023-01-13T21:22:38.996Z,99065.28
2023-01-13T21:25:06.008Z,99075.13
2023-01-13T21:27:32.372Z,99073.63
2023-01-13T21:29:58.995Z,99074.31
2023-01-13T21:32:25.930Z,99069.03
2023-01-13T21:34:52.224Z,99069.78
2023-01-13T21:37:18.733Z,99085.50
2023-01-13T21:39:45.404Z,99090.84
2023-01-13T21:42:15.453Z,99081.63
2023-01-13T21:44:42.123Z,99075.78
2023-01-13T21:47:16.689Z,99079.13
2023-01-13T21:49:42.991Z,99093.41
2023-01-13T21:52:10.370Z,99087.78
2023-01-13T21:54:36.792Z,99095.66
2023-01-13T21:57:03.565Z,99091.81
2023-01-13T21:59:29.871Z,99093.75
2023-01-13T22:02:23.928Z,99098.94
2023-01-13T22:04:42.689Z,99103.22
2023-01-13T22:07:09.039Z,99097.31
2023-01-13T22:09:35.409Z,99105.19
2023-01-13T22:12:01.705Z,99110.56
2023-01-13T22:14:27.978Z,99107.41
2023-01-13T22:16:54.450Z,99109.94
2023-01-13T22:19:20.896Z,99110.31
2023-01-13T22:21:47.268Z,99118.03
2023-01-13T22:24:15.012Z,99110.75
2023-01-13T22:26:41.401Z,99107.50
2023-01-13T22:29:07.713Z,99109.06
2023-01-13T22:31:34.048Z,99117.34
2023-01-13T22:34:00.664Z,99110.06
2023-01-13T22:36:27.312Z,99120.28
2023-01-13T22:38:55.576Z,99118.34
2023-01-13T22:41:22.209Z,99105.59
2023-01-13T22:43:48.570Z,99110.19
2023-01-13T22:46:14.997Z,99127.88
2023-01-13T22:48:41.436Z,99120.78
2023-01-13T22:51:09.057Z,99124.13
2023-01-13T22:53:36.086Z,99116.97
2023-01-13T22:56:02.739Z,99120.84
2023-01-13T22:58:29.397Z,99136.25
2023-01-13T23:00:56.386Z,99138.44
2023-01-13T23:03:23.816Z,99132.81
2023-01-13T23:05:56.575Z,99138.38
2023-01-13T23:08:22.863Z,99134.56
2023-01-13T23:10:49.136Z,99136.19
2023-01-13T23:13:15.545Z,99140.03
2023-01-13T23:15:41.868Z,99137.72
2023-01-13T23:18:08.277Z,99155.59
2023-01-13T23:20:34.653Z,99145.72
2023-01-13T23:23:00.931Z,99146.75
2023-01-13T23:25:27.314Z,99136.34
2023-01-13T23:27:53.693Z,99161.34
2023-01-13T23:30:20.122Z,99146.50
2023-01-13T23:32:46.457Z,99146.47
2023-01-13T23:35:12.819Z,99151.66
2023-01-13T23:37:39.111Z,99149.78
2023-01-13T23:40:05.879Z,99140.91
2023-01-13T23:42:32.223Z,99144.03
2023-01-13T23:44:58.493Z,99151.72
2023-01-13T23:47:24.794Z,99145.19
2023-01-13T23:49:51.197Z,99140.44
2023-01-13T23:52:17.497Z,99161.09
2023-01-13T23:54:43.871Z,99153.06
2023-01-13T23:57:10.357Z,99166.09
2023-01-13T23:59:36.660Z,99169.53
